createdAt,value
2019-05-15T00:01:31.060Z,4.48
2019-05-15T00:06:39.195Z,4.43
2019-05-15T00:11:48.026Z,4.44
2019-05-15T00:16:53.112Z,4.48
2019-05-15T00:22:00.579Z,4.42
2019-05-15T00:27:08.280Z,4.68
2019-05-15T00:32:15.868Z,4.66
2019-05-15T00:37:23.539Z,4.93
2019-05-15T00:42:31.169Z,4.78
2019-05-15T00:47:39.742Z,4.76
2019-05-15T00:52:48.288Z,4.82
2019-05-15T00:57:53.199Z,4.81
2019-05-15T01:03:00.799Z,4.82
2019-05-15T01:08:08.481Z,4.57
2019-05-15T01:13:18.765Z,4.55
2019-05-15T01:18:23.299Z,4.75
2019-05-15T01:23:30.914Z,4.55
2019-05-15T01:28:38.759Z,4.69
2019-05-15T01:33:48.078Z,5.13
2019-05-15T01:38:53.577Z,5.25
2019-05-15T01:44:01.153Z,4.99
2019-05-15T01:49:08.793Z,4.91
2019-05-15T01:54:18.474Z,5.13
2019-05-15T01:59:23.585Z,5.02
2019-05-15T02:04:31.180Z,4.95
2019-05-15T02:09:38.819Z,4.90
2019-05-15T02:14:48.563Z,5.04
2019-05-15T02:19:53.556Z,5.46
2019-05-15T02:25:01.153Z,5.28
2019-05-15T02:30:21.078Z,5.31
2019-05-15T02:35:18.405Z,5.41
2019-05-15T02:40:23.128Z,5.64
2019-05-15T02:45:30.734Z,5.28
2019-05-15T02:50:39.072Z,5.28
2019-05-15T02:55:45.558Z,5.26
2019-05-15T03:00:53.759Z,5.42
2019-05-15T03:06:00.512Z,5.02
2019-05-15T03:11:09.759Z,5.17
2019-05-15T03:16:15.160Z,4.82
2019-05-15T03:21:22.818Z,4.48
2019-05-15T03:26:30.448Z,4.31
2019-05-15T03:31:52.969Z,4.30
2019-05-15T03:36:45.983Z,4.34
2019-05-15T03:41:52.355Z,4.68
2019-05-15T03:46:59.964Z,4.62
2019-05-15T03:52:09.972Z,4.40
2019-05-15T03:57:19.112Z,4.23
2019-05-15T04:02:21.961Z,4.41
2019-05-15T04:07:29.583Z,4.40
2019-05-15T04:12:40.397Z,4.11
2019-05-15T04:17:44.366Z,4.15
2019-05-15T04:22:52.003Z,3.93
2019-05-15T04:27:59.602Z,3.90
2019-05-15T04:33:09.404Z,4.26
2019-05-15T04:38:14.412Z,4.03
2019-05-15T04:43:22.056Z,3.95
2019-05-15T04:48:29.666Z,3.82
2019-05-15T04:53:39.450Z,3.83
2019-05-15T04:58:44.578Z,4.08
2019-05-15T05:03:52.198Z,4.12
2019-05-15T05:08:59.809Z,4.15
2019-05-15T05:14:08.526Z,4.12
2019-05-15T05:19:14.555Z,4.17
2019-05-15T05:24:22.249Z,4.36
2019-05-15T05:29:29.859Z,4.66
2019-05-15T05:34:39.081Z,4.63
2019-05-15T05:39:44.649Z,4.96
2019-05-15T05:44:52.286Z,5.30
2019-05-15T05:49:59.966Z,5.50
2019-05-15T05:55:08.829Z,5.37
2019-05-15T06:00:14.715Z,5.22
2019-05-15T06:05:22.336Z,4.87
2019-05-15T06:10:29.937Z,5.11
2019-05-15T06:15:38.040Z,5.02
2019-05-15T06:20:44.720Z,4.55
2019-05-15T06:25:52.394Z,4.75
2019-05-15T06:31:00.768Z,4.69
2019-05-15T06:36:09.075Z,4.42
2019-05-15T06:41:14.332Z,4.50
2019-05-15T06:46:21.983Z,4.18
2019-05-15T06:51:29.569Z,3.74
2019-05-15T06:56:38.909Z,3.60
2019-05-15T07:01:44.334Z,3.39
2019-05-15T07:06:51.996Z,3.58
2019-05-15T07:11:59.589Z,3.60
2019-05-15T07:17:09.055Z,3.10
2019-05-15T07:22:14.347Z,3.06
2019-05-15T07:27:22.025Z,2.91
2019-05-15T07:32:31.670Z,3.26
2019-05-15T07:37:39.341Z,3.21
2019-05-15T07:42:48.976Z,2.99
2019-05-15T07:47:54.141Z,2.81
2019-05-15T07:53:01.756Z,2.95
2019-05-15T07:58:09.405Z,2.69
2019-05-15T08:03:18.395Z,3.01
2019-05-15T08:08:24.345Z,3.19
2019-05-15T08:13:32.026Z,2.93
2019-05-15T08:18:39.738Z,2.91
2019-05-15T08:23:48.506Z,2.75
2019-05-15T08:28:54.523Z,2.85
2019-05-15T08:34:12.569Z,2.94
2019-05-15T08:39:09.312Z,2.79
2019-05-15T08:44:18.628Z,2.84
2019-05-15T08:49:24.033Z,2.49
2019-05-15T08:54:31.619Z,2.66
2019-05-15T08:59:39.261Z,2.52
2019-05-15T09:04:48.691Z,2.70
2019-05-15T09:09:54.029Z,2.68
2019-05-15T09:15:01.617Z,3.04
2019-05-15T09:20:09.258Z,2.54
2019-05-15T09:25:19.322Z,3.04
2019-05-15T09:30:24.087Z,3.04
2019-05-15T09:35:31.693Z,2.72
2019-05-15T09:40:46.015Z,3.31
2019-05-15T09:45:48.963Z,3.62
2019-05-15T09:50:53.747Z,3.09
2019-05-15T09:56:01.361Z,3.29
2019-05-15T10:01:09.036Z,3.25
2019-05-15T10:06:20.109Z,3.07
2019-05-15T10:11:24.017Z,3.28
2019-05-15T10:16:31.618Z,3.05
2019-05-15T10:21:39.929Z,3.21
2019-05-15T10:26:48.883Z,3.33
2019-05-15T10:31:53.542Z,3.57
2019-05-15T10:37:01.140Z,3.21
2019-05-15T10:42:08.799Z,3.41
2019-05-15T10:47:16.397Z,3.29
2019-05-15T10:52:24.056Z,3.26
2019-05-15T10:57:31.651Z,3.41
2019-05-15T11:02:39.642Z,3.20
2019-05-15T11:07:48.238Z,3.19
2019-05-15T11:12:53.642Z,3.35
2019-05-15T11:18:01.240Z,2.95
2019-05-15T11:23:09.007Z,2.76
2019-05-15T11:28:16.603Z,3.09
2019-05-15T11:33:24.242Z,3.10
2019-05-15T11:38:31.849Z,2.88
2019-05-15T11:43:39.511Z,2.89
2019-05-15T11:48:49.697Z,2.86
2019-05-15T11:53:54.324Z,3.00
2019-05-15T11:59:01.918Z,3.03
2019-05-15T12:04:09.644Z,2.87
2019-05-15T12:09:18.785Z,3.08
2019-05-15T12:14:24.505Z,2.82
2019-05-15T12:19:32.119Z,3.23
2019-05-15T12:24:40.597Z,3.09
2019-05-15T12:29:49.177Z,3.15
2019-05-15T12:34:54.070Z,3.00
2019-05-15T13:00:30.319Z,3.29
2019-05-15T13:05:39.264Z,2.86
2019-05-15T13:10:45.089Z,3.03
2019-05-15T13:15:52.723Z,2.96
2019-05-15T13:21:00.311Z,2.84
2019-05-15T13:26:21.475Z,2.67
2019-05-15T13:31:15.122Z,3.16
2019-05-15T13:36:22.813Z,2.73
2019-05-15T13:41:30.417Z,3.21
2019-05-15T13:46:38.197Z,3.27
2019-05-15T13:51:45.674Z,3.07
2019-05-15T13:56:53.350Z,2.65
2019-05-15T14:02:00.945Z,2.75
2019-05-15T14:07:08.693Z,2.94
2019-05-15T14:12:17.970Z,3.04
2019-05-15T14:17:23.388Z,3.39
2019-05-15T14:22:30.977Z,3.62
2019-05-15T14:27:39.752Z,4.03
2019-05-15T14:32:48.269Z,3.10
2019-05-15T14:38:05.527Z,2.98
2019-05-15T14:43:00.083Z,2.97
2019-05-15T14:48:08.879Z,3.14
2019-05-15T14:53:14.889Z,3.08
2019-05-15T14:58:22.535Z,3.10
2019-05-15T15:03:30.153Z,3.64
2019-05-15T15:08:37.792Z,3.39
2019-05-15T15:13:45.388Z,3.31
2019-05-15T15:18:53.142Z,3.31
2019-05-15T15:24:00.733Z,3.58
2019-05-15T15:29:08.630Z,3.66
2019-05-15T15:34:15.948Z,3.20
2019-05-15T15:39:23.604Z,3.09
2019-05-15T15:44:31.211Z,3.36
2019-05-15T15:49:38.957Z,3.49
2019-05-15T15:54:46.499Z,3.33
2019-05-15T15:59:54.154Z,3.28
2019-05-15T16:05:01.767Z,3.50
2019-05-15T16:10:09.395Z,3.04
2019-05-15T16:15:17.997Z,3.38
2019-05-15T16:20:24.253Z,3.39
2019-05-15T16:25:31.853Z,3.48
2019-05-15T16:30:50.263Z,3.54
2019-05-15T16:35:48.647Z,3.28
2019-05-15T16:40:53.795Z,3.19
2019-05-15T16:46:01.409Z,2.99
2019-05-15T16:51:09.436Z,3.34
2019-05-15T16:56:18.780Z,2.87
2019-05-15T17:01:23.419Z,2.98
2019-05-15T17:06:31.021Z,2.88
2019-05-15T17:11:38.642Z,2.99
2019-05-15T17:16:48.075Z,3.07
2019-05-15T17:21:53.436Z,2.96
2019-05-15T17:27:01.042Z,2.87
2019-05-15T17:32:08.702Z,2.79
2019-05-15T17:37:18.239Z,2.74
2019-05-15T17:42:23.457Z,2.72
2019-05-15T17:47:31.068Z,2.95
2019-05-15T17:52:39.183Z,3.01
2019-05-15T17:57:53.802Z,3.03
2019-05-15T18:02:53.021Z,2.82
2019-05-15T18:08:00.634Z,2.88
2019-05-15T18:13:08.889Z,3.09
2019-05-15T18:18:15.470Z,2.81
2019-05-15T18:23:23.656Z,2.84
2019-05-15T18:28:30.658Z,2.75
2019-05-15T18:33:46.533Z,3.01
2019-05-15T18:38:48.067Z,3.05
2019-05-15T18:43:52.955Z,2.91
2019-05-15T18:49:01.089Z,2.85
2019-05-15T18:54:09.402Z,2.97
2019-05-15T18:59:17.751Z,2.91
2019-05-15T19:04:24.221Z,2.82
2019-05-15T19:09:31.826Z,2.97
2019-05-15T19:14:39.700Z,2.83
2019-05-15T19:19:48.179Z,3.08
2019-05-15T19:24:54.329Z,2.93
2019-05-15T19:30:02.008Z,3.06
2019-05-15T19:35:09.939Z,3.06
2019-05-15T19:40:18.755Z,3.44
2019-05-15T19:45:25.158Z,3.25
2019-05-15T19:50:32.772Z,3.28
2019-05-15T19:55:40.467Z,3.24
2019-05-15T20:00:49.053Z,2.94
2019-05-15T20:05:57.592Z,3.25
2019-05-15T20:11:02.436Z,3.36
2019-05-15T20:16:10.098Z,3.50
2019-05-15T20:21:18.157Z,3.80
2019-05-15T20:26:24.978Z,3.60
2019-05-15T20:31:32.609Z,3.64
2019-05-15T20:36:40.320Z,3.95
2019-05-15T20:41:48.755Z,3.90
2019-05-15T20:46:55.095Z,4.12
2019-05-15T20:52:02.682Z,3.87
2019-05-15T20:57:10.365Z,3.88
2019-05-15T21:02:18.741Z,4.04
2019-05-15T21:07:37.937Z,3.93
2019-05-15T21:12:32.287Z,3.80
2019-05-15T21:17:41.685Z,3.61
2019-05-15T21:22:49.250Z,3.86
2019-05-15T21:27:54.400Z,4.01
2019-05-15T21:33:02.008Z,3.99
2019-05-15T21:38:09.700Z,4.07
2019-05-15T21:43:17.830Z,4.42
2019-05-15T21:48:24.486Z,4.25
2019-05-15T21:53:32.063Z,3.73
2019-05-15T21:58:39.719Z,3.79
2019-05-15T22:03:48.193Z,4.12
2019-05-15T22:08:54.450Z,4.08
2019-05-15T22:14:02.049Z,3.87
2019-05-15T22:19:10.657Z,3.93
2019-05-15T22:24:18.180Z,3.81
2019-05-15T22:29:23.885Z,3.57
2019-05-15T22:34:31.501Z,3.59
2019-05-15T22:39:39.179Z,3.52
2019-05-15T22:44:47.801Z,3.45
2019-05-15T22:49:53.961Z,3.65
2019-05-15T22:55:01.612Z,3.82
2019-05-15T23:00:09.258Z,3.51
2019-05-15T23:05:25.232Z,3.69
2019-05-15T23:10:24.057Z,3.38
2019-05-15T23:15:31.655Z,3.52
2019-05-15T23:20:39.334Z,3.58
2019-05-15T23:25:48.553Z,3.60
2019-05-15T23:30:54.119Z,3.72
2019-05-15T23:36:01.706Z,3.94
2019-05-15T23:41:09.385Z,3.71
2019-05-15T23:46:18.401Z,3.88
2019-05-15T23:51:24.113Z,3.75
2019-05-15T23:56:31.706Z,3.81
